createdAt,value
2019-03-25T00:03:18.386Z,50.64
2019-03-25T00:08:21.022Z,50.74
2019-03-25T00:13:23.642Z,50.62
2019-03-25T00:18:26.289Z,50.50
2019-03-25T00:23:29.014Z,50.47
2019-03-25T00:28:31.615Z,50.55
2019-03-25T00:33:34.237Z,50.38
2019-03-25T00:38:36.869Z,50.24
2019-03-25T00:43:39.466Z,50.24
2019-03-25T00:48:44.217Z,50.57
2019-03-25T00:53:46.934Z,50.57
2019-03-25T00:58:49.624Z,50.68
2019-03-25T01:03:52.372Z,50.56
2019-03-25T01:08:57.974Z,50.55
2019-03-25T01:14:00.606Z,50.44
2019-03-25T01:19:03.264Z,50.47
2019-03-25T01:24:05.882Z,50.64
2019-03-25T01:29:08.567Z,50.43
2019-03-25T01:34:11.207Z,50.52
2019-03-25T01:39:13.864Z,50.55
2019-03-25T01:44:16.509Z,50.74
2019-03-25T01:49:19.154Z,50.62
2019-03-25T01:54:21.748Z,51.16
2019-03-25T01:59:24.661Z,51.37
2019-03-25T02:04:27.135Z,51.50
2019-03-25T02:09:29.749Z,52.11
2019-03-25T02:14:34.748Z,52.62
2019-03-25T02:19:37.490Z,52.72
2019-03-25T02:24:40.081Z,53.08
2019-03-25T02:29:42.656Z,53.47
2019-03-25T02:34:45.312Z,54.10
2019-03-25T02:39:48.153Z,54.10
2019-03-25T02:44:50.793Z,54.42
2019-03-25T02:49:53.392Z,54.51
2019-03-25T02:55:02.280Z,54.49
2019-03-25T03:00:07.589Z,54.50
2019-03-25T03:05:10.497Z,54.33
2019-03-25T03:10:13.156Z,54.69
2019-03-25T03:15:15.754Z,54.44
2019-03-25T03:20:18.509Z,54.67
2019-03-25T03:25:21.104Z,54.37
2019-03-25T03:30:23.759Z,54.00
2019-03-25T03:35:26.533Z,53.49
2019-03-25T03:40:29.139Z,53.28
2019-03-25T03:45:31.737Z,53.38
2019-03-25T03:50:34.553Z,53.43
2019-03-25T03:55:38.772Z,53.88
2019-03-25T04:00:41.413Z,53.99
2019-03-25T04:05:44.047Z,54.12
2019-03-25T04:10:46.685Z,54.22
2019-03-25T04:15:49.298Z,53.92
2019-03-25T04:20:51.943Z,53.85
2019-03-25T04:25:54.522Z,53.89
2019-03-25T04:30:57.151Z,53.86
2019-03-25T04:35:59.827Z,53.84
2019-03-25T04:41:05.412Z,54.00
2019-03-25T04:46:08.009Z,53.97
2019-03-25T04:51:11.891Z,54.06
2019-03-25T04:56:14.470Z,54.07
2019-03-25T05:01:17.092Z,54.01
2019-03-25T05:06:22.002Z,53.93
2019-03-25T05:11:30.550Z,53.84
2019-03-25T05:16:29.164Z,53.72
2019-03-25T05:21:31.743Z,53.67
2019-03-25T05:26:34.474Z,53.70
2019-03-25T05:31:37.100Z,53.60
2019-03-25T05:36:41.857Z,53.60
2019-03-25T05:41:44.701Z,53.68
2019-03-25T05:46:47.311Z,53.81
2019-03-25T05:51:49.917Z,53.53
2019-03-25T05:57:02.055Z,53.27
2019-03-25T06:01:57.091Z,53.02
2019-03-25T06:06:59.695Z,53.56
2019-03-25T06:12:04.205Z,53.92
2019-03-25T06:17:08.412Z,54.40
2019-03-25T06:22:11.081Z,54.54
2019-03-25T06:27:14.647Z,54.69
2019-03-25T06:32:17.610Z,54.49
2019-03-25T06:37:20.329Z,54.60
2019-03-25T06:42:23.049Z,54.42
2019-03-25T06:47:25.752Z,54.52
2019-03-25T06:52:28.381Z,54.47
2019-03-25T06:57:31.045Z,54.58
2019-03-25T07:02:33.744Z,54.46
2019-03-25T07:07:36.303Z,54.91
2019-03-25T07:12:39.430Z,55.31
2019-03-25T07:17:42.084Z,55.29
2019-03-25T07:22:44.781Z,55.55
2019-03-25T07:27:48.711Z,55.61
2019-03-25T07:32:51.290Z,55.71
2019-03-25T07:37:54.055Z,55.88
2019-03-25T07:42:56.741Z,55.80
2019-03-25T07:47:59.397Z,55.64
2019-03-25T07:53:02.103Z,55.93
2019-03-25T07:58:04.808Z,55.76
2019-03-25T08:03:07.499Z,55.49
2019-03-25T08:08:10.236Z,55.22
2019-03-25T08:13:12.938Z,54.87
2019-03-25T08:18:15.660Z,54.74
2019-03-25T08:23:18.293Z,54.27
2019-03-25T08:28:20.873Z,53.05
2019-03-25T08:33:23.515Z,52.19
2019-03-25T08:38:27.354Z,51.06
2019-03-25T08:43:30.040Z,50.29
2019-03-25T08:48:32.718Z,48.74
2019-03-25T08:53:35.400Z,48.94
2019-03-25T08:58:38.230Z,47.45
2019-03-25T09:03:40.896Z,47.40
2019-03-25T09:08:44.733Z,47.21
2019-03-25T09:13:47.220Z,47.15
2019-03-25T09:18:49.940Z,47.04
2019-03-25T09:23:52.636Z,46.35
2019-03-25T09:28:55.234Z,46.38
2019-03-25T09:33:57.888Z,45.69
2019-03-25T09:39:00.618Z,45.52
2019-03-25T09:44:03.646Z,44.30
2019-03-25T09:49:06.324Z,44.49
2019-03-25T09:54:10.518Z,45.17
2019-03-25T09:59:15.083Z,45.44
2019-03-25T10:04:20.039Z,45.07
2019-03-25T10:09:23.815Z,45.16
2019-03-25T10:14:26.503Z,44.25
2019-03-25T10:19:29.180Z,43.80
2019-03-25T10:24:32.947Z,43.10
2019-03-25T10:29:35.582Z,42.13
2019-03-25T10:34:38.293Z,39.84
2019-03-25T10:39:40.876Z,40.13
2019-03-25T10:44:43.461Z,41.21
2019-03-25T10:49:46.011Z,41.87
2019-03-25T10:54:48.920Z,41.88
2019-03-25T10:59:51.670Z,41.91
2019-03-25T11:04:54.261Z,41.36
2019-03-25T11:09:56.940Z,40.90
2019-03-25T11:15:02.096Z,40.83
2019-03-25T11:20:04.899Z,40.32
2019-03-25T11:25:08.702Z,41.24
2019-03-25T11:30:13.439Z,40.85
2019-03-25T11:35:16.353Z,40.62
2019-03-25T11:40:19.118Z,40.88
2019-03-25T11:45:21.792Z,40.59
2019-03-25T11:50:24.424Z,40.77
2019-03-25T11:55:27.055Z,41.07
2019-03-25T12:00:29.640Z,41.24
2019-03-25T12:05:32.275Z,42.17
2019-03-25T12:10:34.888Z,43.77
2019-03-25T12:15:37.557Z,44.14
2019-03-25T12:20:40.271Z,44.07
2019-03-25T12:25:42.894Z,44.82
2019-03-25T12:30:45.719Z,45.10
2019-03-25T12:35:50.466Z,46.27
2019-03-25T12:40:53.228Z,46.56
2019-03-25T12:45:55.825Z,46.42
2019-03-25T12:50:58.436Z,47.32
2019-03-25T12:56:01.107Z,49.28
2019-03-25T13:01:06.026Z,51.19
2019-03-25T13:06:08.653Z,52.08
2019-03-25T13:11:11.268Z,52.73
2019-03-25T13:16:13.881Z,53.66
2019-03-25T13:21:16.553Z,54.19
2019-03-25T13:26:19.144Z,54.43
2019-03-25T13:31:21.830Z,55.35
2019-03-25T13:36:24.436Z,55.45
2019-03-25T13:41:27.182Z,55.36
2019-03-25T13:46:29.954Z,55.83
2019-03-25T13:51:32.667Z,55.92
2019-03-25T13:56:35.315Z,55.80
2019-03-25T14:01:37.932Z,56.05
2019-03-25T14:06:40.548Z,55.71
2019-03-25T14:11:43.190Z,55.03
2019-03-25T14:16:45.846Z,55.07
2019-03-25T14:21:48.436Z,54.50
2019-03-25T14:26:51.121Z,53.67
2019-03-25T14:31:53.704Z,53.90
2019-03-25T14:36:56.316Z,54.33
2019-03-25T14:41:59.158Z,55.14
2019-03-25T14:47:01.799Z,55.68
2019-03-25T14:52:04.543Z,55.83
2019-03-25T14:57:07.153Z,55.65
2019-03-25T15:02:09.798Z,55.70
2019-03-25T15:07:12.355Z,55.80
2019-03-25T15:12:14.955Z,55.94
2019-03-25T15:17:17.867Z,56.08
2019-03-25T15:22:20.694Z,56.49
2019-03-25T15:27:23.289Z,56.00
2019-03-25T15:32:25.896Z,56.21
2019-03-25T15:37:28.511Z,56.58
2019-03-25T15:42:31.114Z,56.31
2019-03-25T15:47:33.745Z,56.72
2019-03-25T15:52:36.484Z,56.70
2019-03-25T15:57:39.877Z,57.13
2019-03-25T16:02:42.860Z,57.88
2019-03-25T16:07:45.757Z,58.44
2019-03-25T16:12:48.451Z,58.62
2019-03-25T16:17:51.064Z,58.50
2019-03-25T16:22:53.734Z,59.09
2019-03-25T16:27:56.330Z,59.26
2019-03-25T16:32:58.992Z,59.88
2019-03-25T16:38:01.602Z,59.67
2019-03-25T16:43:04.266Z,59.70
2019-03-25T16:48:06.863Z,59.88
2019-03-25T16:53:10.523Z,60.00
2019-03-25T16:58:13.134Z,60.14
2019-03-25T17:03:15.797Z,60.14
2019-03-25T17:08:18.444Z,60.04
2019-03-25T17:13:21.051Z,59.90
2019-03-25T17:18:24.743Z,60.02
2019-03-25T17:23:27.440Z,59.98
2019-03-25T17:28:30.104Z,59.85
2019-03-25T17:33:32.737Z,59.69
2019-03-25T17:38:35.350Z,59.77
2019-03-25T17:43:37.958Z,59.83
2019-03-25T17:48:40.597Z,59.87
2019-03-25T17:53:43.213Z,59.96
2019-03-25T17:58:46.013Z,60.04
2019-03-25T18:03:48.704Z,60.07
2019-03-25T18:08:51.461Z,60.20
2019-03-25T18:14:02.995Z,60.38
2019-03-25T18:19:05.880Z,60.38
2019-03-25T18:24:08.619Z,60.53
2019-03-25T18:29:11.208Z,60.67
2019-03-25T18:34:13.889Z,60.63
2019-03-25T18:39:16.551Z,60.96
2019-03-25T18:44:19.386Z,61.00
2019-03-25T18:49:22.050Z,60.83
2019-03-25T18:54:24.790Z,60.52
2019-03-25T18:59:27.496Z,60.43
2019-03-25T19:04:30.194Z,60.40
2019-03-25T19:09:32.996Z,60.40
2019-03-25T19:14:35.653Z,60.03
2019-03-25T19:19:39.395Z,59.75
2019-03-25T19:24:42.058Z,59.66
2019-03-25T19:29:44.744Z,59.96
2019-03-25T19:34:47.520Z,60.17
2019-03-25T19:39:50.337Z,60.12
2019-03-25T19:44:52.906Z,60.17
2019-03-25T19:49:55.653Z,60.17
2019-03-25T19:54:58.292Z,60.05
2019-03-25T20:00:03.623Z,60.30
2019-03-25T20:05:07.799Z,60.25
2019-03-25T20:10:26.325Z,60.22
2019-03-25T20:15:35.763Z,60.23
2019-03-25T20:20:35.510Z,60.38
2019-03-25T20:25:38.823Z,60.06
2019-03-25T20:30:41.629Z,60.08
2019-03-25T20:35:46.371Z,59.93
2019-03-25T20:40:48.934Z,59.87
2019-03-25T20:45:51.852Z,60.05
2019-03-25T20:50:55.612Z,59.97
2019-03-25T20:55:58.433Z,60.03
2019-03-25T21:01:01.431Z,60.04
2019-03-25T21:06:04.124Z,60.14
2019-03-25T21:11:06.815Z,60.21
2019-03-25T21:16:09.472Z,60.10
2019-03-25T21:21:12.155Z,60.11
2019-03-25T21:26:16.409Z,60.09
2019-03-25T21:31:19.113Z,60.07
2019-03-25T21:36:21.888Z,60.09
2019-03-25T21:41:24.583Z,60.26
2019-03-25T21:46:28.561Z,60.17
2019-03-25T21:51:31.148Z,60.33
2019-03-25T21:56:33.873Z,60.34
2019-03-25T22:01:36.544Z,60.22
2019-03-25T22:06:39.192Z,60.33
2019-03-25T22:11:41.892Z,60.41
2019-03-25T22:16:44.653Z,60.58
2019-03-25T22:21:47.282Z,60.49
2019-03-25T22:26:49.843Z,60.60
2019-03-25T22:31:52.579Z,60.66
2019-03-25T22:36:55.241Z,60.74
2019-03-25T22:41:57.854Z,60.72
2019-03-25T22:47:01.714Z,60.72
2019-03-25T22:52:05.570Z,60.86
2019-03-25T22:57:09.134Z,61.02
2019-03-25T23:02:11.853Z,60.88
2019-03-25T23:07:14.574Z,60.78
2019-03-25T23:12:17.444Z,60.66
2019-03-25T23:17:20.058Z,60.43
2019-03-25T23:22:22.724Z,60.35
2019-03-25T23:27:27.295Z,60.58
2019-03-25T23:32:31.117Z,60.71
2019-03-25T23:37:33.764Z,60.77
2019-03-25T23:42:36.376Z,60.53
2019-03-25T23:47:39.415Z,60.79
2019-03-25T23:52:42.163Z,60.88
2019-03-25T23:57:44.888Z,60.91
